Time;durP1;ratioP1;P1;durP2;ratioP2;P2;SDS_P1;SDS_P2;PMS_P1;PMS_P2;Temp;Humidity;BMP_temperature;BMP_pressure;BME280_temperature;BME280_humidity;BME280_pressure;Samples;Min_cycle;Max_cycle;Signal;HPM_P1;HPM_P2
2023/06/07 00:00:33;;;;;;;14.20;7.50;;;;;;;18.45;47.37;100681.76;109503;1252;63840;-76
2023/06/07 00:03:00;;;;;;;11.10;7.30;;;;;;;18.40;47.51;100681.27;109380;1253;58308;-77
2023/06/07 00:05:31;;;;;;;12.00;6.90;;;;;;;18.34;47.64;100677.96;109429;1253;58121;-76
2023/06/07 00:07:57;;;;;;;14.60;7.60;;;;;;;18.28;48.00;100674.64;109500;1253;65022;-76
2023/06/07 00:10:24;;;;;;;10.10;6.40;;;;;;;18.25;48.20;100672.84;109407;1253;58565;-77
2023/06/07 00:12:50;;;;;;;11.20;6.30;;;;;;;18.23;48.26;100670.85;109498;1253;58192;-76
2023/06/07 00:15:17;;;;;;;11.90;6.60;;;;;;;18.25;48.22;100673.23;109217;1253;58121;-76
2023/06/07 00:17:44;;;;;;;11.10;6.50;;;;;;;18.26;48.16;100669.29;109492;1253;58178;-77
2023/06/07 00:20:14;;;;;;;18.10;6.80;;;;;;;18.27;48.09;100670.83;109494;1253;64885;-76
2023/06/07 00:22:41;;;;;;;15.30;6.40;;;;;;;18.28;48.13;100670.93;109493;1252;58343;-77
2023/06/07 00:25:08;;;;;;;10.40;6.20;;;;;;;18.29;48.31;100670.62;109372;1253;64067;-76
2023/06/07 00:27:35;;;;;;;12.20;6.40;;;;;;;18.31;48.29;100671.29;109345;1253;58114;-76
2023/06/07 00:30:04;;;;;;;12.40;6.30;;;;;;;18.33;48.15;100673.09;109119;1253;58135;-76
2023/06/07 00:32:33;;;;;;;9.00;6.00;;;;;;;18.34;48.17;100675.70;109394;1253;63793;-76
2023/06/07 00:34:59;;;;;;;13.40;6.30;;;;;;;18.33;48.02;100676.48;109420;1253;58485;-76
2023/06/07 00:37:27;;;;;;;16.50;6.40;;;;;;;18.29;48.19;100678.58;109518;1252;62518;-76
2023/06/07 00:39:54;;;;;;;11.40;6.70;;;;;;;18.26;48.36;100675.77;109474;1253;58153;-76
2023/06/07 00:42:21;;;;;;;15.80;6.70;;;;;;;18.25;48.39;100676.55;109495;1252;58141;-76
2023/06/07 00:44:47;;;;;;;9.80;6.30;;;;;;;18.26;48.52;100680.73;109506;1252;65348;-76
2023/06/07 00:47:14;;;;;;;13.50;6.50;;;;;;;18.27;48.42;100680.46;109545;1252;58142;-76
2023/06/07 00:49:42;;;;;;;12.50;7.10;;;;;;;18.29;48.19;100680.02;109470;1252;63842;-76
2023/06/07 00:52:09;;;;;;;13.10;6.30;;;;;;;18.32;48.01;100685.09;109149;1253;58138;-76
2023/06/07 00:54:35;;;;;;;16.10;6.50;;;;;;;18.34;47.81;100686.73;109175;1253;58246;-76
2023/06/07 00:57:02;;;;;;;10.30;6.30;;;;;;;18.34;48.00;100681.31;109323;1253;65017;-76
2023/06/07 00:59:29;;;;;;;12.70;6.40;;;;;;;18.34;48.05;100680.98;109347;1253;58348;-76
2023/06/07 01:01:56;;;;;;;10.40;6.00;;;;;;;18.32;47.96;100682.24;109316;1253;63986;-76
2023/06/07 01:04:24;;;;;;;12.60;6.60;;;;;;;18.29;48.10;100680.59;109182;1253;58136;-77
2023/06/07 01:06:53;;;;;;;10.00;5.70;;;;;;;18.27;48.08;100678.48;109155;1253;58042;-76
2023/06/07 01:09:24;;;;;;;10.30;6.80;;;;;;;18.24;48.17;100676.14;109489;1253;65075;-76
2023/06/07 01:11:51;;;;;;;12.30;5.80;;;;;;;18.21;48.33;100675.89;109324;1253;58277;-77
2023/06/07 01:14:19;;;;;;;10.40;6.30;;;;;;;18.19;48.47;100676.90;109476;1253;64042;-78
2023/06/07 01:16:50;;;;;;;11.00;6.50;;;;;;;18.14;48.71;100676.00;109282;1253;58063;-77
2023/06/07 01:19:23;;;;;;;16.00;6.50;;;;;;;18.09;49.05;100671.96;109319;1253;58254;-76
2023/06/07 01:21:51;;;;;;;10.40;5.90;;;;;;;18.02;49.11;100672.80;109311;1253;65075;-77
2023/06/07 01:24:18;;;;;;;12.50;6.30;;;;;;;17.96;49.42;100670.95;109210;1253;58269;-77
2023/06/07 01:26:46;;;;;;;12.00;5.90;;;;;;;17.90;49.68;100672.10;109290;1253;64018;-76
2023/06/07 01:29:15;;;;;;;10.00;6.40;;;;;;;17.86;49.59;100670.81;109308;1253;58153;-76
2023/06/07 01:31:42;;;;;;;11.20;6.50;;;;;;;17.82;49.77;100675.47;109330;1253;58151;-76
2023/06/07 01:34:10;;;;;;;10.40;6.50;;;;;;;17.80;49.68;100675.94;109323;1256;64998;-76
2023/06/07 01:36:37;;;;;;;10.80;6.20;;;;;;;17.76;49.74;100672.19;109328;1253;58440;-76
2023/06/07 01:39:04;;;;;;;8.50;5.90;;;;;;;17.72;49.86;100673.13;109391;1253;63982;-76
2023/06/07 01:41:32;;;;;;;13.30;6.10;;;;;;;17.69;49.87;100673.97;109240;1253;58106;-76
2023/06/07 01:43:58;;;;;;;15.40;6.20;;;;;;;17.66;49.85;100676.90;109526;1253;58063;-75
2023/06/07 01:46:26;;;;;;;11.90;6.20;;;;;;;17.62;50.04;100676.52;109558;1253;65011;-76
2023/06/07 01:48:53;;;;;;;11.00;6.40;;;;;;;17.57;50.20;100675.27;109372;1253;58398;-76
2023/06/07 01:51:20;;;;;;;10.90;6.80;;;;;;;17.51;50.43;100677.77;109289;1254;62644;-76
2023/06/07 01:53:49;;;;;;;10.50;6.40;;;;;;;17.47;50.72;100679.27;109237;1255;58100;-75
2023/06/07 01:56:19;;;;;;;11.10;6.10;;;;;;;17.43;50.86;100678.63;109199;1255;58132;-76
2023/06/07 01:58:54;;;;;;;9.60;6.50;;;;;;;17.40;51.04;100678.59;109164;1256;63765;-78
2023/06/07 02:01:54;;;;;;;9.40;6.20;;;;;;;17.39;51.16;100681.66;109410;1255;58150;-75
2023/06/07 02:04:21;;;;;;;9.00;6.10;;;;;;;17.38;51.14;100679.86;109223;1255;62417;-76
2023/06/07 02:06:48;;;;;;;13.30;6.70;;;;;;;17.38;51.23;100681.14;109397;1255;58465;-76
2023/06/07 02:09:15;;;;;;;14.20;6.80;;;;;;;17.38;51.46;100680.23;109144;1255;58208;-76
2023/06/07 02:11:41;;;;;;;15.00;6.90;;;;;;;17.38;51.61;100677.48;109244;1255;63734;-76
2023/06/07 02:14:08;;;;;;;15.00;7.40;;;;;;;17.40;51.61;100680.36;109196;1256;58201;-76
2023/06/07 02:16:35;;;;;;;12.00;7.50;;;;;;;17.43;51.46;100677.29;109148;1256;62721;-76
2023/06/07 02:19:06;;;;;;;11.40;7.20;;;;;;;17.48;51.38;100673.69;109205;1255;58400;-76
2023/06/07 02:21:36;;;;;;;15.20;7.30;;;;;;;17.52;51.13;100672.55;109400;1255;58211;-76
2023/06/07 02:24:04;;;;;;;9.90;6.20;;;;;;;17.56;51.04;100672.67;109355;1255;65275;-74
2023/06/07 02:26:35;;;;;;;12.20;7.00;;;;;;;17.59;50.93;100673.75;109347;1255;58183;-77
2023/06/07 02:29:02;;;;;;;11.00;6.80;;;;;;;17.60;50.88;100674.76;109303;1255;64172;-76
2023/06/07 02:31:29;;;;;;;10.80;6.10;;;;;;;17.59;50.80;100673.61;109331;1255;58121;-77
2023/06/07 02:33:56;;;;;;;9.40;6.00;;;;;;;17.59;50.55;100673.21;109385;1255;58089;-78
2023/06/07 02:36:24;;;;;;;12.00;6.80;;;;;;;17.59;50.71;100671.48;109359;1255;58623;-77
2023/06/07 02:38:51;;;;;;;12.80;6.60;;;;;;;17.60;50.71;100675.09;109153;1258;58385;-77
2023/06/07 02:41:18;;;;;;;12.60;6.00;;;;;;;17.61;50.76;100674.79;109113;1255;62495;-77
2023/06/07 02:43:44;;;;;;;11.20;6.20;;;;;;;17.65;50.52;100675.08;109135;1255;58205;-78
2023/06/07 02:46:11;;;;;;;12.90;6.60;;;;;;;17.70;50.34;100677.45;109207;1255;58061;-77
2023/06/07 02:48:38;;;;;;;11.80;6.30;;;;;;;17.73;50.43;100676.50;109150;1255;63930;-78
2023/06/07 02:51:05;;;;;;;13.50;6.30;;;;;;;17.75;50.50;100681.52;109327;1255;58175;-78
2023/06/07 02:53:32;;;;;;;11.90;7.00;;;;;;;17.77;50.29;100682.68;109289;1255;62456;-78
2023/06/07 02:55:59;;;;;;;10.40;6.30;;;;;;;17.76;50.42;100685.20;109099;1256;58161;-78
2023/06/07 02:58:27;;;;;;;11.40;6.10;;;;;;;17.73;50.62;100685.27;109148;1256;58052;-78
2023/06/07 03:00:55;;;;;;;11.70;6.10;;;;;;;17.70;50.56;100684.71;109281;1259;63754;-77
2023/06/07 03:03:23;;;;;;;10.10;6.60;;;;;;;17.70;50.56;100684.91;109188;1256;58330;-78
2023/06/07 03:05:59;;;;;;;11.30;6.50;;;;;;;17.71;50.51;100687.22;109081;1256;62832;-77
2023/06/07 03:08:28;;;;;;;13.20;6.80;;;;;;;17.75;50.43;100688.16;109126;1256;58160;-79
2023/06/07 03:10:55;;;;;;;10.90;6.60;;;;;;;17.75;50.41;100685.98;109141;1256;59251;-77
2023/06/07 03:13:25;;;;;;;12.20;6.50;;;;;;;17.76;50.47;100688.02;109130;1258;63978;-78
2023/06/07 03:15:52;;;;;;;13.80;6.60;;;;;;;17.77;50.34;100683.65;109300;1255;58169;-77
2023/06/07 03:18:19;;;;;;;14.90;6.80;;;;;;;17.78;50.36;100683.63;109074;1255;64042;-78
2023/06/07 03:20:52;;;;;;;11.30;7.10;;;;;;;17.76;50.52;100681.80;109232;1255;58064;-77
2023/06/07 03:23:19;;;;;;;13.60;6.80;;;;;;;17.75;50.48;100681.02;109114;1256;58202;-77
2023/06/07 03:25:48;;;;;;;16.90;7.50;;;;;;;17.74;50.56;100681.11;109205;1256;63637;-77
2023/06/07 03:28:18;;;;;;;12.20;7.50;;;;;;;17.74;50.67;100682.72;109150;1256;58158;-77
2023/06/07 03:30:44;;;;;;;11.80;6.80;;;;;;;17.74;50.59;100686.63;109233;1256;62515;-77
2023/06/07 03:33:11;;;;;;;12.70;6.60;;;;;;;17.72;50.63;100683.81;109126;1256;58157;-77
2023/06/07 03:35:39;;;;;;;10.60;6.80;;;;;;;17.70;50.80;100680.98;109160;1256;58187;-77
2023/06/07 03:38:07;;;;;;;12.20;6.40;;;;;;;17.70;50.76;100683.01;109144;1256;63835;-77
2023/06/07 03:40:33;;;;;;;10.80;6.50;;;;;;;17.70;50.94;100685.28;109069;1262;58228;-77
2023/06/07 03:43:01;;;;;;;12.00;7.40;;;;;;;17.70;51.02;100685.64;109145;1256;64035;-77
2023/06/07 03:45:28;;;;;;;12.70;6.50;;;;;;;17.73;51.13;100686.55;109100;1256;58131;-77
2023/06/07 03:47:59;;;;;;;17.70;6.80;;;;;;;17.77;51.21;100685.64;109154;1256;58077;-76
2023/06/07 03:50:27;;;;;;;12.50;6.60;;;;;;;17.81;51.39;100682.89;109144;1256;63880;-78
2023/06/07 03:52:54;;;;;;;10.70;6.60;;;;;;;17.87;51.30;100680.84;109251;1256;58494;-77
2023/06/07 03:55:21;;;;;;;10.00;6.50;;;;;;;17.92;51.25;100674.04;109155;1256;63833;-77
2023/06/07 03:57:48;;;;;;;18.70;7.10;;;;;;;17.97;51.10;100673.86;109205;1256;58120;-77
2023/06/07 04:00:17;;;;;;;15.00;6.80;;;;;;;18.03;51.21;100675.77;109114;1256;58210;-77
2023/06/07 04:02:45;;;;;;;13.70;7.70;;;;;;;18.07;51.23;100680.11;109092;1256;65280;-77
2023/06/07 04:05:13;;;;;;;19.20;7.30;;;;;;;18.11;51.15;100681.11;109123;1256;58540;-77
2023/06/07 04:07:41;;;;;;;13.40;7.00;;;;;;;18.16;51.25;100681.79;109097;1256;62652;-77
2023/06/07 04:10:09;;;;;;;17.90;6.80;;;;;;;18.24;51.30;100684.50;109139;1256;58127;-77
2023/06/07 04:12:36;;;;;;;11.80;6.00;;;;;;;18.33;51.23;100684.31;109088;1256;58181;-77
2023/06/07 04:15:05;;;;;;;12.70;6.80;;;;;;;18.45;51.06;100681.42;109216;1259;65009;-76
2023/06/07 04:17:33;;;;;;;13.40;6.40;;;;;;;18.58;51.04;100685.54;109176;1256;58278;-78
2023/06/07 04:20:00;;;;;;;10.90;6.40;;;;;;;18.71;50.67;100684.51;109203;1257;63907;-76
2023/06/07 04:22:27;;;;;;;19.10;6.20;;;;;;;18.84;50.25;100685.15;109139;1256;58135;-78
2023/06/07 04:24:54;;;;;;;13.10;5.80;;;;;;;18.98;49.72;100688.24;109126;1256;58115;-77
2023/06/07 04:27:23;;;;;;;11.20;6.40;;;;;;;19.12;49.06;100689.81;109213;1256;63876;-76
2023/06/07 04:29:53;;;;;;;10.30;6.10;;;;;;;19.24;48.67;100689.66;109152;1256;58598;-77
2023/06/07 04:32:21;;;;;;;13.70;6.10;;;;;;;19.37;48.57;100689.95;109082;1256;62917;-76
2023/06/07 04:34:51;;;;;;;15.10;6.30;;;;;;;19.52;48.43;100686.05;109012;1256;58086;-77
2023/06/07 04:37:19;;;;;;;20.30;5.90;;;;;;;19.66;48.08;100688.58;109132;1256;58093;-77
2023/06/07 04:39:48;;;;;;;15.50;5.90;;;;;;;19.80;48.13;100690.33;109098;1256;64206;-77
2023/06/07 04:42:16;;;;;;;11.70;5.90;;;;;;;19.94;47.75;100687.44;109139;1256;58224;-77
2023/06/07 04:44:44;;;;;;;9.50;5.50;;;;;;;20.08;47.19;100683.45;109094;1256;63856;-77
2023/06/07 04:47:14;;;;;;;10.80;5.30;;;;;;;20.19;46.96;100683.93;109089;1256;58147;-77
2023/06/07 04:49:44;;;;;;;12.30;5.80;;;;;;;20.30;46.70;100687.27;109149;1256;58032;-77
2023/06/07 04:52:19;;;;;;;12.50;5.50;;;;;;;20.43;46.59;100690.13;109090;1256;65296;-76
2023/06/07 04:54:56;;;;;;;11.70;5.50;;;;;;;20.55;46.41;100688.72;109052;1256;58603;-76
2023/06/07 04:57:26;;;;;;;13.90;5.40;;;;;;;20.67;46.22;100688.90;109048;1256;63886;-76
2023/06/07 04:59:57;;;;;;;12.30;4.90;;;;;;;20.81;45.94;100689.59;109085;1256;58110;-77
2023/06/07 05:02:38;;;;;;;9.80;4.70;;;;;;;20.96;45.19;100690.34;109050;1256;58220;-77
2023/06/07 05:05:13;;;;;;;11.10;4.50;;;;;;;21.11;45.01;100689.18;109170;1256;65386;-77
2023/06/07 05:07:44;;;;;;;7.10;3.50;;;;;;;21.28;45.02;100689.95;109006;1256;58151;-78
2023/06/07 05:10:14;;;;;;;7.10;4.70;;;;;;;21.44;45.23;100686.52;109088;1256;64048;-77
2023/06/07 05:12:46;;;;;;;11.80;4.90;;;;;;;21.61;45.02;100684.98;109055;1258;58130;-77
2023/06/07 05:15:17;;;;;;;7.90;4.10;;;;;;;21.77;44.69;100687.02;109087;1256;58238;-77
2023/06/07 05:17:48;;;;;;;9.50;4.20;;;;;;;21.92;44.63;100686.99;109107;1256;66172;-77
2023/06/07 05:20:18;;;;;;;8.40;4.30;;;;;;;22.07;44.42;100692.52;109083;1256;58580;-76
2023/06/07 05:22:47;;;;;;;9.70;4.00;;;;;;;22.22;43.99;100689.78;109078;1262;64123;-77
2023/06/07 05:25:17;;;;;;;9.70;4.00;;;;;;;22.34;43.88;100687.23;109031;1256;58155;-76
2023/06/07 05:27:49;;;;;;;11.20;3.90;;;;;;;22.47;43.72;100691.45;109067;1256;58125;-78
2023/06/07 05:30:37;;;;;;;8.60;3.70;;;;;;;22.64;43.26;100690.30;109086;1256;63752;-77
2023/06/07 05:33:06;;;;;;;5.70;2.60;;;;;;;22.79;42.28;100692.14;109045;1256;58671;-77
2023/06/07 05:35:36;;;;;;;4.90;2.60;;;;;;;22.93;40.82;100690.21;109166;1256;62651;-77
2023/06/07 05:38:08;;;;;;;3.50;2.50;;;;;;;23.06;39.98;100688.30;109151;1256;58187;-76
2023/06/07 05:40:38;;;;;;;4.90;2.70;;;;;;;23.21;39.63;100687.73;109168;1256;58194;-76
2023/06/07 05:43:09;;;;;;;6.80;2.50;;;;;;;23.36;39.50;100681.45;109133;1256;65131;-77
2023/06/07 05:45:40;;;;;;;3.60;2.20;;;;;;;23.51;38.82;100684.86;109102;1256;58561;-77
2023/06/07 05:48:09;;;;;;;4.00;2.30;;;;;;;23.64;38.51;100685.75;109080;1256;65012;-76
2023/06/07 05:58:27;;;;;;;6.00;2.00;;;;;;;24.13;36.80;100682.88;102794;1294;600898;-78
2023/06/07 06:00:54;;;;;;;3.80;2.20;;;;;;;24.23;36.49;100680.13;105574;1258;59337;-81
2023/06/07 06:03:21;;;;;;;2.70;1.70;;;;;;;24.32;35.79;100681.27;105190;1264;59391;-77
2023/06/07 06:05:50;;;;;;;4.60;1.90;;;;;;;24.42;35.46;100687.35;105320;1264;62076;-81
2023/06/07 06:08:17;;;;;;;3.80;1.90;;;;;;;24.52;35.29;100686.38;105607;1263;59177;-76
2023/06/07 06:10:45;;;;;;;2.20;1.70;;;;;;;24.64;35.09;100684.40;105409;1263;63820;-77
2023/06/07 06:13:12;;;;;;;7.10;1.90;;;;;;;24.78;34.79;100688.55;105545;1262;174511;-78
2023/06/07 06:15:40;;;;;;;7.50;2.10;;;;;;;24.92;34.66;100688.86;105710;1257;59358;-78
2023/06/07 06:18:07;;;;;;;5.00;2.00;;;;;;;25.04;34.63;100686.96;105686;1260;62072;-78
2023/06/07 06:28:10;;;;;;;5.60;2.20;;;;;;;25.52;34.11;100687.52;102626;1295;601643;-77
2023/06/07 06:30:37;;;;;;;4.40;2.10;;;;;;;25.57;34.14;100686.05;104919;1270;59680;-80
2023/06/07 06:33:04;;;;;;;5.50;2.10;;;;;;;25.66;34.36;100684.98;104976;1266;59283;-79
2023/06/07 06:42:43;;;;;;;8.50;2.10;;;;;;;26.16;33.34;100675.81;103210;1286;600095;-82
2023/06/07 06:45:22;;;;;;;3.90;1.60;;;;;;;26.26;33.14;100673.84;105114;1267;59313;-79
2023/06/07 06:47:49;;;;;;;4.50;1.90;;;;;;;26.37;33.10;100672.83;105223;1265;59257;-80
2023/06/07 06:50:17;;;;;;;4.80;2.00;;;;;;;26.47;32.92;100672.52;104862;1266;62142;-77
2023/06/07 06:52:59;;;;;;;6.70;2.20;;;;;;;26.54;32.83;100674.45;104644;1266;59336;-79
2023/06/07 07:01:52;;;;;;;3.60;2.20;;;;;;;26.87;34.41;100674.56;102773;1293;601281;-81
2023/06/07 07:04:20;;;;;;;4.90;2.20;;;;;;;26.94;34.00;100677.45;104881;1272;59152;-78
2023/06/07 07:06:47;;;;;;;6.40;2.00;;;;;;;27.01;33.97;100676.83;104992;1272;59302;-78
2023/06/07 07:09:31;;;;;;;4.00;2.10;;;;;;;27.14;34.09;100675.95;102652;1296;600293;-78
2023/06/07 07:11:59;;;;;;;3.80;2.10;;;;;;;27.26;34.22;100677.40;104907;1267;59366;-77
2023/06/07 07:14:27;;;;;;;7.30;2.10;;;;;;;27.42;33.96;100683.63;105377;1265;59311;-78
2023/06/07 07:24:49;;;;;;;6.00;2.20;;;;;;;27.80;31.65;100685.34;102570;1293;605225;-76
2023/06/07 07:27:21;;;;;;;8.10;2.20;;;;;;;27.81;31.17;100687.17;105100;1267;59226;-76
2023/06/07 07:29:49;;;;;;;8.30;2.10;;;;;;;27.88;30.84;100684.87;104975;1272;59267;-72
2023/06/07 07:32:16;;;;;;;10.00;1.80;;;;;;;27.93;30.10;100685.09;104910;1267;63663;-77
2023/06/07 07:34:42;;;;;;;7.90;1.90;;;;;;;28.01;29.60;100684.21;105480;1260;59093;-73
2023/06/07 07:37:09;;;;;;;4.10;1.60;;;;;;;28.10;29.61;100685.39;105274;1257;176615;-78
2023/06/07 07:39:36;;;;;;;3.40;1.80;;;;;;;28.22;29.76;100687.43;105824;1256;59212;-83
2023/06/07 07:42:05;;;;;;;4.90;1.70;;;;;;;28.35;29.55;100691.45;105552;1257;59359;-75
2023/06/07 07:44:34;;;;;;;6.70;1.70;;;;;;;28.45;29.15;100692.08;105825;1257;63299;-74
2023/06/07 07:47:01;;;;;;;5.00;1.90;;;;;;;28.51;28.98;100689.23;105825;1259;60210;-76
2023/06/07 07:49:27;;;;;;;4.60;1.70;;;;;;;28.57;29.03;100686.33;105688;1257;64005;-80
2023/06/07 07:51:54;;;;;;;3.30;1.70;;;;;;;28.67;29.06;100688.93;105583;1261;59612;-76
2023/06/07 07:54:23;;;;;;;2.70;1.60;;;;;;;28.75;28.81;100690.34;105693;1257;59657;-73
2023/06/07 07:56:50;;;;;;;4.40;1.50;;;;;;;28.84;28.69;100690.13;105554;1257;64521;-75
2023/06/07 07:59:16;;;;;;;5.40;1.70;;;;;;;28.94;28.94;100690.06;105681;1261;59650;-74
2023/06/07 08:01:45;;;;;;;2.70;1.70;;;;;;;29.09;28.88;100688.90;105630;1257;63732;-75
2023/06/07 08:04:12;;;;;;;3.00;1.60;;;;;;;29.23;28.72;100690.11;105534;1257;59539;-73
2023/06/07 08:06:39;;;;;;;13.00;2.10;;;;;;;29.36;28.51;100686.77;105566;1257;59702;-71
2023/06/07 08:09:05;;;;;;;11.20;1.90;;;;;;;29.48;28.41;100687.41;105696;1256;63104;-68
2023/06/07 08:11:32;;;;;;;4.10;1.80;;;;;;;29.58;28.56;100683.19;105717;1259;59723;-70
2023/06/07 08:13:59;;;;;;;4.60;1.70;;;;;;;29.71;28.35;100683.14;105607;1262;63966;-67
2023/06/07 08:16:26;;;;;;;3.30;1.60;;;;;;;29.83;27.92;100682.73;105665;1259;59596;-68
2023/06/07 08:18:56;;;;;;;3.80;1.90;;;;;;;29.91;27.76;100680.50;105666;1260;59624;-68
2023/06/07 08:21:24;;;;;;;7.20;2.10;;;;;;;30.00;27.78;100678.31;105417;1259;64087;-68
2023/06/07 08:23:55;;;;;;;4.10;1.70;;;;;;;30.09;27.87;100674.66;105707;1257;59621;-71
2023/06/07 08:26:22;;;;;;;21.00;2.40;;;;;;;30.19;27.69;100673.27;105720;1257;63903;-70
2023/06/07 08:28:49;;;;;;;6.90;1.80;;;;;;;30.29;27.50;100674.56;105740;1256;59539;-69
2023/06/07 08:31:17;;;;;;;3.40;1.60;;;;;;;30.38;27.12;100679.34;105794;1254;59730;-68
2023/06/07 08:33:46;;;;;;;7.40;1.70;;;;;;;30.47;26.85;100676.19;105654;1257;65190;-69
2023/06/07 08:36:14;;;;;;;4.20;1.60;;;;;;;30.54;26.99;100674.39;105623;1254;59627;-69
2023/06/07 08:38:41;;;;;;;3.00;1.50;;;;;;;30.56;26.70;100670.02;105709;1257;64612;-69
2023/06/07 08:41:08;;;;;;;1.90;1.50;;;;;;;30.61;26.18;100669.95;105671;1257;59613;-73
2023/06/07 08:43:36;;;;;;;3.80;1.60;;;;;;;30.68;26.04;100675.21;105705;1253;59724;-70
2023/06/07 08:46:06;;;;;;;4.20;1.50;;;;;;;30.73;26.15;100679.23;105334;1253;64121;-69
2023/06/07 08:48:35;;;;;;;2.30;1.40;;;;;;;30.78;25.97;100680.56;105541;1254;60481;-70
2023/06/07 08:51:02;;;;;;;3.50;1.50;;;;;;;30.80;25.99;100679.30;105737;1254;64589;-69
2023/06/07 08:53:54;;;;;;;2.10;1.40;;;;;;;30.77;25.97;100678.75;105880;1259;59627;-70
2023/06/07 08:56:21;;;;;;;7.80;1.50;;;;;;;30.69;25.98;100680.73;105572;1253;59691;-69
2023/06/07 08:58:49;;;;;;;5.00;1.60;;;;;;;30.57;26.39;100683.08;105680;1257;65200;-72
2023/06/07 09:01:17;;;;;;;4.40;1.40;;;;;;;30.50;26.26;100685.55;105789;1257;59624;-69
2023/06/07 09:03:45;;;;;;;9.20;2.30;;;;;;;30.45;26.23;100686.63;105841;1254;64128;-69
2023/06/07 09:06:11;;;;;;;8.00;1.80;;;;;;;30.39;26.30;100682.80;105692;1253;59638;-69
2023/06/07 09:08:38;;;;;;;5.20;1.50;;;;;;;30.31;26.17;100684.30;105740;1254;59711;-70
2023/06/07 09:11:05;;;;;;;3.90;1.70;;;;;;;30.21;26.50;100684.48;105684;1253;64212;-70
2023/06/07 09:13:33;;;;;;;4.90;1.70;;;;;;;30.13;26.66;100680.95;105700;1257;59614;-68
2023/06/07 09:16:00;;;;;;;5.80;1.40;;;;;;;30.05;26.66;100682.02;105575;1258;64058;-69
2023/06/07 09:18:53;;;;;;;3.30;1.50;;;;;;;29.98;27.13;100684.81;105506;1256;59639;-75
2023/06/07 09:21:26;;;;;;;2.70;1.50;;;;;;;29.87;27.39;100687.02;105543;1254;59630;-67
2023/06/07 09:23:54;;;;;;;5.90;1.70;;;;;;;29.77;27.34;100683.70;106766;1253;64532;-69
2023/06/07 09:26:25;;;;;;;4.40;1.80;;;;;;;29.69;27.76;100681.39;109189;1253;59073;-70
2023/06/07 09:28:52;;;;;;;3.70;1.70;;;;;;;29.63;28.28;100681.55;109183;1253;63661;-72
2023/06/07 09:31:32;;;;;;;8.10;1.50;;;;;;;29.59;28.77;100678.69;109253;1253;57447;-71
2023/06/07 09:33:58;;;;;;;4.80;1.70;;;;;;;29.58;29.13;100673.27;109188;1253;57503;-72
2023/06/07 09:36:30;;;;;;;4.60;1.80;;;;;;;29.56;29.28;100672.44;109183;1253;64506;-78
2023/06/07 09:38:57;;;;;;;5.10;1.90;;;;;;;29.56;29.19;100668.84;109271;1253;58408;-69
2023/06/07 09:41:29;;;;;;;4.20;1.70;;;;;;;29.58;29.05;100669.84;109187;1253;64801;-70
2023/06/07 09:43:56;;;;;;;5.40;1.70;;;;;;;29.58;28.42;100670.95;109235;1253;58177;-70
2023/06/07 09:46:22;;;;;;;4.20;1.50;;;;;;;29.62;28.13;100671.80;108999;1253;58860;-70
2023/06/07 09:48:50;;;;;;;3.70;1.40;;;;;;;29.65;28.09;100671.80;109186;1253;66043;-69
2023/06/07 09:51:19;;;;;;;3.80;1.70;;;;;;;29.70;28.29;100673.25;109283;1254;58231;-71
2023/06/07 09:54:03;;;;;;;5.20;1.70;;;;;;;29.78;28.65;100672.55;109246;1253;63811;-69
2023/06/07 09:56:29;;;;;;;4.20;1.50;;;;;;;29.89;28.93;100666.58;109045;1253;58273;-70
2023/06/07 09:59:10;;;;;;;4.20;1.50;;;;;;;30.02;29.31;100669.45;109071;1254;58866;-73
2023/06/07 10:01:45;;;;;;;4.30;1.70;;;;;;;30.13;29.57;100671.27;109098;1255;64727;-70
2023/06/07 10:04:12;;;;;;;2.10;1.50;;;;;;;30.20;30.14;100674.55;108997;1253;57835;-70
2023/06/07 10:06:41;;;;;;;5.10;1.70;;;;;;;30.24;30.81;100672.45;109182;1253;64021;-69
2023/06/07 10:09:08;;;;;;;3.00;1.90;;;;;;;30.30;30.92;100670.54;109215;1253;57856;-71
2023/06/07 10:11:38;;;;;;;22.00;3.30;;;;;;;30.38;30.22;100669.58;109135;1253;57555;-71
2023/06/07 10:14:06;;;;;;;3.90;1.90;;;;;;;30.42;30.00;100666.12;109070;1253;62913;-71
2023/06/07 10:16:35;;;;;;;4.10;1.70;;;;;;;30.43;29.81;100663.16;109158;1253;58192;-69
2023/06/07 10:19:09;;;;;;;6.30;1.50;;;;;;;30.49;30.16;100662.86;109154;1253;64452;-71
2023/06/07 10:21:37;;;;;;;3.10;1.60;;;;;;;30.58;29.73;100658.73;109060;1254;57723;-70
2023/06/07 10:24:05;;;;;;;4.80;1.50;;;;;;;30.72;29.32;100658.33;109082;1253;57507;-69
2023/06/07 10:26:54;;;;;;;4.90;1.50;;;;;;;30.87;28.74;100659.55;109195;1253;64393;-69
2023/06/07 10:29:25;;;;;;;3.50;1.70;;;;;;;31.03;28.10;100655.10;109226;1253;57513;-69
2023/06/07 10:32:19;;;;;;;4.50;1.50;;;;;;;31.21;27.35;100652.87;108976;1253;64022;-69
2023/06/07 10:34:46;;;;;;;4.50;1.50;;;;;;;31.47;26.91;100647.67;109141;1253;58123;-69
2023/06/07 10:37:13;;;;;;;7.50;1.70;;;;;;;31.69;26.26;100646.09;109159;1254;57527;-68
2023/06/07 10:39:40;;;;;;;4.40;1.70;;;;;;;31.91;25.91;100644.34;109282;1254;62854;-73
2023/06/07 10:42:07;;;;;;;5.50;1.80;;;;;;;32.15;25.33;100640.17;105985;1256;59832;-72
2023/06/07 10:44:35;;;;;;;5.90;1.80;;;;;;;32.41;23.53;100641.83;105914;1255;64007;-72
2023/06/07 10:47:21;;;;;;;2.40;1.50;;;;;;;32.67;22.87;100638.42;105934;1253;59615;-70
2023/06/07 10:49:50;;;;;;;3.60;1.80;;;;;;;32.92;23.07;100637.10;105800;1253;59637;-72
2023/06/07 10:52:18;;;;;;;4.70;2.10;;;;;;;33.16;22.52;100635.29;105771;1257;64328;-70
2023/06/07 10:54:46;;;;;;;4.60;1.80;;;;;;;33.36;21.73;100638.92;105790;1253;59678;-71
2023/06/07 10:57:13;;;;;;;2.70;1.90;;;;;;;33.50;20.93;100639.27;105852;1253;63937;-72
2023/06/07 10:59:40;;;;;;;3.40;1.80;;;;;;;33.55;20.42;100636.39;105898;1258;59558;-71
2023/06/07 11:02:23;;;;;;;4.30;1.90;;;;;;;33.63;20.04;100636.69;106454;1253;59542;-72
2023/06/07 11:04:53;;;;;;;3.20;1.80;;;;;;;33.76;20.60;100636.58;105771;1259;64244;-72
2023/06/07 11:07:22;;;;;;;5.30;1.70;;;;;;;33.92;21.50;100640.59;106087;1258;69205;-74
2023/06/07 11:10:16;;;;;;;41.00;4.60;;;;;;;34.06;21.34;100632.86;105808;1253;63994;-72
2023/06/07 11:12:45;;;;;;;21.90;3.60;;;;;;;34.23;21.08;100629.86;105845;1253;61076;-73
2023/06/07 11:15:18;;;;;;;4.00;1.90;;;;;;;34.40;20.50;100629.29;105959;1259;59736;-72
2023/06/07 11:17:56;;;;;;;4.00;1.90;;;;;;;34.56;20.38;100625.78;105841;1258;64413;-72
2023/06/07 11:20:38;;;;;;;5.50;1.80;;;;;;;34.74;20.34;100621.54;105782;1258;59611;-73
2023/06/07 11:23:29;;;;;;;4.70;1.80;;;;;;;34.94;20.04;100619.89;105805;1255;63881;-72
2023/06/07 11:26:11;;;;;;;3.20;1.90;;;;;;;35.03;19.46;100621.69;105615;1258;59701;-71
2023/06/07 11:28:40;;;;;;;2.70;1.70;;;;;;;35.09;19.19;100620.91;105813;1253;59732;-73
2023/06/07 11:31:08;;;;;;;2.70;1.80;;;;;;;35.18;18.88;100624.12;105877;1253;63405;-72
2023/06/07 11:33:36;;;;;;;2.80;2.00;;;;;;;35.32;18.68;100618.92;105687;1253;59570;-71
2023/06/07 11:36:09;;;;;;;4.50;2.10;;;;;;;35.49;18.80;100610.96;105716;1254;63822;-70
2023/06/07 11:38:38;;;;;;;5.30;2.40;;;;;;;35.61;18.94;100615.52;105593;1254;60409;-72
2023/06/07 11:41:05;;;;;;;5.50;2.20;;;;;;;35.72;18.35;100616.73;105755;1255;60425;-71
2023/06/07 11:43:33;;;;;;;4.40;2.00;;;;;;;35.89;18.49;100614.17;105698;1253;75292;-73
2023/06/07 11:46:00;;;;;;;5.50;2.40;;;;;;;36.14;18.26;100610.44;105831;1258;60335;-72
2023/06/07 11:54:48;;;;;;;3.60;2.30;;;;;;;36.77;17.47;100605.48;103157;1289;600207;-73
2023/06/07 11:57:16;;;;;;;2.60;2.30;;;;;;;36.89;17.55;100607.80;104905;1266;59309;-75
2023/06/07 11:59:43;;;;;;;5.20;2.50;;;;;;;37.01;17.28;100609.10;104941;1270;59342;-73
2023/06/07 12:02:12;;;;;;;5.30;2.20;;;;;;;37.06;17.13;100604.54;104777;1266;63330;-72
2023/06/07 12:04:42;;;;;;;4.50;2.20;;;;;;;36.98;16.84;100608.20;104747;1265;59348;-71
2023/06/07 12:07:17;;;;;;;6.20;2.50;;;;;;;36.78;16.98;100606.08;104961;1267;62530;-74